createdAt,value
2023-08-11T00:02:24.042Z,20.74
2023-08-11T00:04:51.714Z,20.56
2023-08-11T00:07:18.653Z,20.45
2023-08-11T00:09:45.626Z,20.45
2023-08-11T00:12:12.673Z,20.66
2023-08-11T00:14:39.604Z,20.59
2023-08-11T00:17:06.948Z,20.55
2023-08-11T00:19:34.081Z,20.55
2023-08-11T00:22:00.929Z,20.60
2023-08-11T00:24:27.988Z,20.35
2023-08-11T00:26:54.839Z,20.31
2023-08-11T00:29:22.515Z,20.40
2023-08-11T00:31:49.581Z,20.34
2023-08-11T00:34:17.151Z,20.36
2023-08-11T00:36:44.021Z,20.53
2023-08-11T00:39:10.970Z,20.59
2023-08-11T00:41:37.848Z,20.48
2023-08-11T00:44:05.103Z,20.31
2023-08-11T00:46:31.991Z,20.17
2023-08-11T00:49:01.526Z,20.10
2023-08-11T00:51:29.370Z,20.22
2023-08-11T00:53:58.305Z,20.08
2023-08-11T00:56:25.476Z,20.10
2023-08-11T00:58:52.609Z,19.88
2023-08-11T01:01:19.749Z,20.14
2023-08-11T01:03:49.091Z,20.09
2023-08-11T01:06:43.125Z,20.17
2023-08-11T01:09:33.604Z,20.11
2023-08-11T01:12:15.534Z,20.23
2023-08-11T01:14:58.816Z,20.12
2023-08-11T01:17:27.300Z,20.25
2023-08-11T01:19:54.266Z,19.93
2023-08-11T01:22:25.051Z,19.96
2023-08-11T01:24:52.824Z,20.00
2023-08-11T01:27:20.185Z,20.11
2023-08-11T01:29:47.298Z,20.14
2023-08-11T01:32:14.185Z,20.02
2023-08-11T01:34:41.209Z,20.04
2023-08-11T01:37:09.485Z,19.85
2023-08-11T01:39:36.642Z,19.93
2023-08-11T01:42:04.441Z,19.75
2023-08-11T01:44:31.465Z,19.99
2023-08-11T01:46:59.713Z,20.03
2023-08-11T01:49:30.441Z,20.00
2023-08-11T01:51:58.247Z,20.07
2023-08-11T01:54:25.418Z,20.16
2023-08-11T01:56:53.494Z,20.29
2023-08-11T01:59:21.174Z,20.34
2023-08-11T02:01:48.151Z,20.54
2023-08-11T02:04:15.197Z,20.48
2023-08-11T02:06:42.112Z,20.45
2023-08-11T02:09:10.335Z,20.35
2023-08-11T02:11:38.678Z,20.41
2023-08-11T02:14:09.785Z,20.74
2023-08-11T02:16:37.403Z,20.83
2023-08-11T02:19:06.150Z,21.09
2023-08-11T02:21:33.173Z,21.25
2023-08-11T02:24:00.043Z,21.17
2023-08-11T02:26:27.142Z,21.17
2023-08-11T02:28:54.134Z,21.11
2023-08-11T02:31:21.245Z,21.00
2023-08-11T02:33:49.297Z,20.84
2023-08-11T02:36:16.233Z,20.78
2023-08-11T02:38:46.262Z,20.85
2023-08-11T02:41:13.235Z,20.95
2023-08-11T02:43:40.080Z,20.75
2023-08-11T02:46:07.865Z,20.82
2023-08-11T02:48:39.784Z,21.02
2023-08-11T02:51:06.792Z,21.28
2023-08-11T02:53:33.682Z,21.47
2023-08-11T02:56:07.945Z,21.46
2023-08-11T02:58:34.991Z,21.29
2023-08-11T03:01:02.569Z,21.34
2023-08-11T03:03:30.469Z,21.29
2023-08-11T03:05:58.180Z,21.02
2023-08-11T03:08:26.035Z,21.00
2023-08-11T03:10:57.063Z,21.00
2023-08-11T03:13:30.378Z,20.86
2023-08-11T03:16:00.113Z,20.83
2023-08-11T03:18:28.360Z,20.88
2023-08-11T03:21:06.544Z,20.89
2023-08-11T03:23:41.083Z,20.86
2023-08-11T03:26:10.730Z,21.01
2023-08-11T03:28:38.200Z,20.84
2023-08-11T03:31:05.150Z,20.68
2023-08-11T03:33:35.763Z,20.58
2023-08-11T03:36:07.523Z,20.81
2023-08-11T03:38:34.615Z,20.82
2023-08-11T03:41:01.531Z,20.63
2023-08-11T03:43:28.402Z,20.35
2023-08-11T03:45:56.444Z,20.62
2023-08-11T03:48:23.406Z,20.75
2023-08-11T03:50:50.337Z,20.77
2023-08-11T03:53:18.031Z,20.84
2023-08-11T03:55:48.154Z,20.77
2023-08-11T03:58:17.187Z,20.75
2023-08-11T04:00:45.969Z,20.47
2023-08-11T04:03:16.142Z,20.48
2023-08-11T04:05:43.578Z,20.52
2023-08-11T04:08:12.654Z,20.73
2023-08-11T04:10:39.791Z,20.65
2023-08-11T04:13:06.823Z,20.63
2023-08-11T04:15:34.026Z,20.78
2023-08-11T04:18:01.274Z,20.86
2023-08-11T04:20:30.087Z,20.75
2023-08-11T04:22:57.893Z,20.90
2023-08-11T04:25:25.369Z,20.84
2023-08-11T04:27:52.720Z,20.77
2023-08-11T04:30:19.839Z,20.91
2023-08-11T04:32:49.619Z,20.61
2023-08-11T04:35:16.712Z,20.78
2023-08-11T04:37:45.488Z,20.75
2023-08-11T04:40:15.413Z,20.69
2023-08-11T04:42:45.874Z,21.00
2023-08-11T04:45:19.472Z,21.26
2023-08-11T04:47:47.435Z,21.22
2023-08-11T04:50:19.337Z,21.01
2023-08-11T04:52:49.234Z,21.16
2023-08-11T04:55:16.096Z,21.31
2023-08-11T04:57:43.824Z,20.98
2023-08-11T05:00:18.506Z,21.02
2023-08-11T05:02:46.528Z,20.86
2023-08-11T05:05:13.772Z,20.87
2023-08-11T05:07:41.314Z,20.72
2023-08-11T05:10:08.740Z,20.90
2023-08-11T05:12:35.673Z,20.91
2023-08-11T05:15:04.711Z,21.14
2023-08-11T05:17:32.771Z,21.42
2023-08-11T05:19:59.821Z,21.27
2023-08-11T05:22:26.811Z,21.59
2023-08-11T05:24:53.962Z,21.62
2023-08-11T05:27:21.046Z,21.70
2023-08-11T05:29:49.431Z,21.72
2023-08-11T05:32:16.739Z,21.63
2023-08-11T05:34:43.729Z,21.75
2023-08-11T05:37:11.033Z,21.99
2023-08-11T05:39:41.066Z,22.30
2023-08-11T05:42:08.430Z,21.82
2023-08-11T05:44:35.746Z,21.69
2023-08-11T05:47:02.906Z,21.63
2023-08-11T05:49:30.162Z,21.92
2023-08-11T05:51:57.061Z,22.29
2023-08-11T05:54:23.933Z,22.23
2023-08-11T05:56:54.267Z,22.54
2023-08-11T05:59:24.353Z,22.78
2023-08-11T06:01:51.836Z,22.82
2023-08-11T06:04:18.785Z,22.61
2023-08-11T06:06:45.700Z,22.71
2023-08-11T06:09:12.632Z,22.93
2023-08-11T06:11:39.723Z,22.93
2023-08-11T06:14:06.683Z,23.05
2023-08-11T06:16:33.639Z,23.05
2023-08-11T06:19:00.845Z,22.99
2023-08-11T06:21:28.602Z,23.02
2023-08-11T06:23:55.506Z,23.16
2023-08-11T06:26:22.421Z,23.30
2023-08-11T06:28:49.907Z,23.40
2023-08-11T06:31:20.086Z,23.48
2023-08-11T06:33:47.793Z,23.36
2023-08-11T06:36:15.181Z,23.54
2023-08-11T06:38:42.142Z,23.65
2023-08-11T06:41:09.101Z,23.82
2023-08-11T06:43:36.018Z,23.62
2023-08-11T06:46:03.053Z,23.68
2023-08-11T06:48:30.102Z,23.96
2023-08-11T06:51:00.156Z,23.80
2023-08-11T06:53:27.028Z,23.83
2023-08-11T06:55:53.978Z,23.95
2023-08-11T06:58:22.852Z,23.88
2023-08-11T07:00:51.834Z,24.07
2023-08-11T07:03:18.776Z,24.19
2023-08-11T07:05:45.742Z,24.03
2023-08-11T07:08:12.754Z,24.43
2023-08-11T07:10:40.814Z,24.28
2023-08-11T07:13:07.666Z,24.27
2023-08-11T07:15:36.176Z,24.11
2023-08-11T07:18:05.203Z,24.43
2023-08-11T07:20:32.189Z,24.29
2023-08-11T07:22:59.129Z,24.33
2023-08-11T07:25:26.194Z,24.45
2023-08-11T07:27:53.154Z,24.35
2023-08-11T07:30:20.162Z,24.53
2023-08-11T07:32:47.542Z,24.65
2023-08-11T07:35:15.148Z,24.81
2023-08-11T07:37:42.117Z,24.54
2023-08-11T07:40:09.812Z,24.81
2023-08-11T07:42:36.921Z,24.93
2023-08-11T07:45:04.038Z,25.03
2023-08-11T07:47:30.977Z,25.06
2023-08-11T07:49:58.384Z,25.07
2023-08-11T07:52:25.472Z,25.04
2023-08-11T07:54:52.687Z,25.18
2023-08-11T07:57:19.641Z,25.19
2023-08-11T07:59:46.586Z,25.28
2023-08-11T08:02:14.567Z,25.55
2023-08-11T08:04:41.554Z,25.61
2023-08-11T08:07:08.799Z,25.55
2023-08-11T08:09:36.182Z,25.60
2023-08-11T08:12:03.287Z,25.85
2023-08-11T08:14:30.453Z,25.77
2023-08-11T08:16:59.662Z,25.85
2023-08-11T08:19:26.656Z,25.96
2023-08-11T08:21:53.585Z,26.11
2023-08-11T08:24:20.716Z,26.12
2023-08-11T08:26:49.427Z,26.27
2023-08-11T08:29:16.311Z,26.37
2023-08-11T08:31:43.262Z,26.50
2023-08-11T08:34:10.606Z,26.57
2023-08-11T08:36:37.653Z,26.80
2023-08-11T08:39:06.205Z,26.78
2023-08-11T08:41:39.546Z,26.99
2023-08-11T08:44:07.096Z,27.03
2023-08-11T08:46:35.383Z,27.06
2023-08-11T08:49:20.798Z,27.01
2023-08-11T08:51:48.555Z,27.25
2023-08-11T08:54:15.482Z,27.43
2023-08-11T08:56:42.575Z,27.52
2023-08-11T08:59:09.528Z,27.60
2023-08-11T09:01:37.916Z,27.76
2023-08-11T09:04:07.553Z,27.90
2023-08-11T09:06:35.404Z,27.71
2023-08-11T09:09:05.112Z,27.68
2023-08-11T09:11:32.165Z,27.65
2023-08-11T09:14:06.752Z,27.85
2023-08-11T09:16:40.614Z,28.02
2023-08-11T09:19:12.524Z,28.16
2023-08-11T09:21:42.827Z,28.25
2023-08-11T09:24:13.140Z,28.43
2023-08-11T09:26:50.654Z,28.45
2023-08-11T09:29:21.292Z,28.60
2023-08-11T09:31:50.604Z,28.69
2023-08-11T09:34:19.099Z,28.70
2023-08-11T09:36:47.948Z,28.46
2023-08-11T09:39:15.201Z,28.63
2023-08-11T09:41:44.208Z,28.82
2023-08-11T09:44:13.325Z,28.94
2023-08-11T09:46:40.472Z,28.91
2023-08-11T09:49:07.566Z,28.79
2023-08-11T09:51:39.018Z,28.84
2023-08-11T09:54:11.591Z,28.60
2023-08-11T09:56:43.747Z,28.78
2023-08-11T09:59:21.540Z,29.13
2023-08-11T10:01:50.064Z,29.39
2023-08-11T10:04:22.404Z,29.58
2023-08-11T10:06:52.419Z,29.78
2023-08-11T10:09:23.783Z,29.76
2023-08-11T10:11:51.117Z,29.83
2023-08-11T10:14:21.734Z,29.59
2023-08-11T10:16:49.210Z,29.63
2023-08-11T10:19:16.548Z,29.40
2023-08-11T10:21:43.493Z,29.40
2023-08-11T10:24:11.240Z,29.79
2023-08-11T10:26:38.845Z,29.98
2023-08-11T10:29:05.977Z,29.96
2023-08-11T10:31:34.138Z,29.58
2023-08-11T10:34:07.655Z,30.04
2023-08-11T10:36:34.759Z,30.16
2023-08-11T10:39:02.659Z,30.15
2023-08-11T10:41:29.806Z,30.21
2023-08-11T10:43:57.720Z,30.17
2023-08-11T10:46:30.771Z,30.26
2023-08-11T10:49:09.787Z,30.06
2023-08-11T10:51:39.088Z,30.42
2023-08-11T10:54:10.369Z,30.54
2023-08-11T10:56:42.683Z,30.73
2023-08-11T10:59:32.922Z,30.56
2023-08-11T11:02:02.995Z,30.67
2023-08-11T11:04:32.358Z,30.61
2023-08-11T11:07:01.222Z,30.66
2023-08-11T11:09:29.330Z,31.06
2023-08-11T11:11:56.934Z,30.60
2023-08-11T11:14:28.256Z,30.64
2023-08-11T11:17:00.472Z,30.71
2023-08-11T11:19:28.342Z,30.83
2023-08-11T11:21:55.897Z,30.93
2023-08-11T11:24:22.912Z,31.01
2023-08-11T11:26:49.910Z,31.04
2023-08-11T11:29:17.634Z,31.30
2023-08-11T11:31:44.795Z,31.06
2023-08-11T11:34:11.892Z,30.22
2023-08-11T11:36:39.537Z,30.44
2023-08-11T11:39:07.374Z,30.64
2023-08-11T11:41:34.260Z,30.71
2023-08-11T11:44:01.360Z,31.01
2023-08-11T11:46:33.251Z,31.16
2023-08-11T11:49:07.141Z,31.45
2023-08-11T11:51:39.876Z,31.51
2023-08-11T11:54:06.798Z,30.63
2023-08-11T11:56:33.929Z,30.08
2023-08-11T11:59:02.181Z,30.60
2023-08-11T12:01:30.516Z,30.85
2023-08-11T12:04:01.788Z,31.13
2023-08-11T12:06:29.942Z,31.43
2023-08-11T12:09:05.341Z,31.56
2023-08-11T12:11:32.487Z,31.53
2023-08-11T12:14:01.116Z,31.54
2023-08-11T12:16:28.673Z,31.50
2023-08-11T12:19:01.603Z,31.20
2023-08-11T12:21:29.522Z,31.61
2023-08-11T12:23:56.757Z,31.67
2023-08-11T12:26:24.187Z,31.58
2023-08-11T12:28:51.087Z,31.84
2023-08-11T12:31:18.022Z,31.92
2023-08-11T12:33:45.029Z,31.72
2023-08-11T12:36:12.129Z,31.74
2023-08-11T12:38:39.102Z,31.86
2023-08-11T12:41:06.058Z,31.52
2023-08-11T12:43:32.947Z,31.03
2023-08-11T12:46:00.048Z,31.45
2023-08-11T12:48:26.963Z,31.56
2023-08-11T12:50:53.820Z,31.83
2023-08-11T12:53:20.639Z,31.40
2023-08-11T12:55:47.618Z,31.42
2023-08-11T12:58:14.426Z,31.65
2023-08-11T13:00:41.360Z,31.69
2023-08-11T13:03:08.544Z,31.41
2023-08-11T13:05:35.801Z,31.50
2023-08-11T13:08:02.996Z,31.36
2023-08-11T13:10:29.962Z,31.66
2023-08-11T13:12:56.838Z,31.56
2023-08-11T13:15:24.653Z,31.44
2023-08-11T13:17:51.645Z,31.80
2023-08-11T13:20:18.921Z,31.88
2023-08-11T13:22:45.780Z,31.69
2023-08-11T13:25:12.962Z,31.50
2023-08-11T13:27:40.028Z,31.78
2023-08-11T13:30:10.377Z,31.73
2023-08-11T13:32:37.701Z,31.56
2023-08-11T13:35:06.351Z,31.42
2023-08-11T13:37:33.364Z,31.23
2023-08-11T13:40:01.600Z,31.54
2023-08-11T13:42:28.737Z,31.87
2023-08-11T13:44:55.601Z,31.83
2023-08-11T13:47:22.623Z,31.67
2023-08-11T13:49:49.765Z,31.96
2023-08-11T13:52:16.722Z,32.09
2023-08-11T13:54:58.184Z,31.86
2023-08-11T13:57:25.960Z,31.67
2023-08-11T13:59:55.544Z,31.54
2023-08-11T14:02:22.857Z,31.65
2023-08-11T14:04:49.769Z,31.65
2023-08-11T14:07:29.497Z,31.37
2023-08-11T14:09:59.766Z,31.54
2023-08-11T14:12:26.662Z,31.39
2023-08-11T14:14:53.544Z,31.44
2023-08-11T14:17:20.502Z,31.70
2023-08-11T14:19:47.375Z,31.64
2023-08-11T14:22:14.278Z,31.63
2023-08-11T14:24:41.135Z,31.48
2023-08-11T14:27:08.090Z,31.63
2023-08-11T14:29:35.064Z,31.60
2023-08-11T14:32:18.301Z,31.42
2023-08-11T14:34:49.163Z,31.50
2023-08-11T14:37:17.591Z,30.55
2023-08-11T14:39:46.040Z,30.37
2023-08-11T14:42:14.911Z,30.28
2023-08-11T14:44:42.255Z,30.30
2023-08-11T14:47:14.288Z,30.68
2023-08-11T14:49:42.756Z,30.47
2023-08-11T14:52:10.228Z,30.97
2023-08-11T14:54:37.783Z,31.00
2023-08-11T14:57:04.868Z,31.08
2023-08-11T14:59:32.737Z,31.11
2023-08-11T15:01:59.974Z,30.71
2023-08-11T15:04:28.104Z,30.82
2023-08-11T15:06:55.141Z,30.75
2023-08-11T15:09:22.138Z,30.68
2023-08-11T15:11:49.508Z,31.10
2023-08-11T15:14:17.343Z,30.96
2023-08-11T15:16:44.308Z,30.59
2023-08-11T15:19:11.929Z,30.44
2023-08-11T15:21:40.805Z,30.57
2023-08-11T15:24:08.657Z,30.96
2023-08-11T15:26:35.654Z,30.85
2023-08-11T15:29:02.618Z,30.84
2023-08-11T15:31:29.688Z,30.76
2023-08-11T15:33:56.562Z,30.88
2023-08-11T15:36:23.520Z,30.45
2023-08-11T15:38:52.046Z,30.48
2023-08-11T15:41:20.006Z,30.47
2023-08-11T15:43:47.126Z,30.50
2023-08-11T15:46:14.060Z,30.40
2023-08-11T15:48:41.018Z,30.56
2023-08-11T15:51:07.885Z,30.40
2023-08-11T15:53:34.939Z,29.77
2023-08-11T15:56:02.637Z,29.89
2023-08-11T15:58:29.580Z,29.54
2023-08-11T16:00:57.419Z,29.12
2023-08-11T16:03:24.442Z,29.32
2023-08-11T16:05:51.476Z,29.06
2023-08-11T16:08:18.329Z,29.34
2023-08-11T16:10:45.595Z,29.29
2023-08-11T16:13:12.571Z,29.06
2023-08-11T16:15:39.587Z,29.09
2023-08-11T16:18:08.307Z,29.01
2023-08-11T16:20:35.637Z,29.18
2023-08-11T16:23:02.794Z,28.91
2023-08-11T16:25:29.756Z,28.88
2023-08-11T16:27:56.628Z,28.88
2023-08-11T16:30:23.470Z,28.85
2023-08-11T16:32:50.451Z,28.86
2023-08-11T16:35:17.475Z,28.92
2023-08-11T16:37:44.386Z,29.05
2023-08-11T16:40:12.176Z,28.92
2023-08-11T16:42:39.118Z,28.72
2023-08-11T16:45:06.464Z,28.78
2023-08-11T16:47:33.710Z,28.78
2023-08-11T16:50:00.748Z,28.55
2023-08-11T16:52:27.748Z,28.44
2023-08-11T16:54:54.628Z,28.51
2023-08-11T16:57:21.639Z,28.31
2023-08-11T16:59:48.511Z,28.42
2023-08-11T17:02:15.397Z,28.28
2023-08-11T17:04:42.304Z,28.27
2023-08-11T17:07:09.282Z,28.29
2023-08-11T17:09:36.171Z,28.16
2023-08-11T17:12:03.256Z,28.01
2023-08-11T17:14:30.187Z,27.96
2023-08-11T17:16:57.106Z,27.85
2023-08-11T17:19:24.010Z,27.84
2023-08-11T17:21:50.906Z,27.93
2023-08-11T17:24:17.741Z,27.72
2023-08-11T17:26:44.627Z,27.53
2023-08-11T17:29:11.646Z,27.42
2023-08-11T17:31:38.568Z,27.46
2023-08-11T17:34:05.473Z,27.58
2023-08-11T17:36:32.437Z,27.23
2023-08-11T17:38:59.876Z,27.17
2023-08-11T17:41:27.841Z,27.04
2023-08-11T17:43:57.598Z,27.30
2023-08-11T17:46:24.715Z,27.29
2023-08-11T17:48:53.520Z,27.32
2023-08-11T17:51:21.881Z,27.35
2023-08-11T17:53:59.771Z,27.10
2023-08-11T17:56:36.908Z,27.14
2023-08-11T17:59:04.234Z,27.12
2023-08-11T18:01:31.875Z,27.11
2023-08-11T18:04:05.292Z,27.17
2023-08-11T18:06:35.456Z,27.02
2023-08-11T18:09:04.795Z,27.13
2023-08-11T18:11:33.183Z,27.13
2023-08-11T18:14:00.134Z,27.08
2023-08-11T18:16:28.329Z,27.08
2023-08-11T18:18:55.859Z,27.00
2023-08-11T18:21:22.958Z,26.66
2023-08-11T18:23:49.924Z,26.80
2023-08-11T18:26:19.693Z,26.90
2023-08-11T18:28:46.600Z,27.07
2023-08-11T18:31:13.683Z,27.04
2023-08-11T18:33:40.690Z,26.96
2023-08-11T18:36:08.082Z,27.05
2023-08-11T18:38:35.160Z,26.85
2023-08-11T18:41:02.042Z,26.77
2023-08-11T18:43:28.962Z,26.63
2023-08-11T18:45:55.905Z,26.54
2023-08-11T18:48:22.988Z,26.68
2023-08-11T18:50:49.872Z,26.84
2023-08-11T18:53:16.844Z,26.66
2023-08-11T18:55:44.718Z,26.02
2023-08-11T18:58:12.041Z,26.35
2023-08-11T19:00:40.570Z,26.04
2023-08-11T19:03:07.987Z,26.06
2023-08-11T19:05:35.392Z,26.37
2023-08-11T19:08:03.263Z,26.31
2023-08-11T19:10:30.271Z,26.00
2023-08-11T19:12:57.297Z,25.94
2023-08-11T19:15:24.317Z,25.93
2023-08-11T19:17:51.278Z,25.98
2023-08-11T19:20:18.557Z,26.01
2023-08-11T19:22:45.638Z,26.08
2023-08-11T19:25:12.820Z,25.90
2023-08-11T19:27:39.976Z,26.00
2023-08-11T19:30:08.124Z,26.03
2023-08-11T19:32:36.108Z,26.01
2023-08-11T19:35:03.674Z,25.88
2023-08-11T19:37:30.658Z,25.87
2023-08-11T19:39:57.702Z,25.62
2023-08-11T19:42:24.657Z,25.69
2023-08-11T19:44:51.871Z,25.52
2023-08-11T19:47:18.789Z,25.40
2023-08-11T19:49:45.716Z,25.56
2023-08-11T19:52:13.028Z,25.48
2023-08-11T19:54:40.360Z,25.56
2023-08-11T19:57:07.330Z,25.56
2023-08-11T19:59:34.247Z,25.44
2023-08-11T20:02:01.196Z,25.39
2023-08-11T20:04:28.183Z,25.36
2023-08-11T20:06:55.154Z,25.49
2023-08-11T20:09:23.547Z,25.32
2023-08-11T20:11:51.180Z,25.16
2023-08-11T20:14:19.985Z,25.28
2023-08-11T20:16:47.549Z,25.16
2023-08-11T20:19:14.506Z,25.11
2023-08-11T20:21:43.366Z,24.98
2023-08-11T20:24:10.419Z,24.76
2023-08-11T20:26:37.485Z,24.70
2023-08-11T20:29:04.706Z,24.52
2023-08-11T20:31:34.047Z,24.48
2023-08-11T20:34:01.717Z,24.61
2023-08-11T20:36:28.735Z,24.61
2023-08-11T20:38:55.655Z,24.65
2023-08-11T20:41:22.588Z,24.68
2023-08-11T20:43:50.778Z,24.53
2023-08-11T20:46:17.812Z,24.46
2023-08-11T20:48:44.728Z,24.50
2023-08-11T20:51:13.254Z,24.44
2023-08-11T20:53:40.233Z,24.30
2023-08-11T20:56:09.319Z,24.42
2023-08-11T20:58:36.813Z,24.32
2023-08-11T21:01:04.080Z,24.21
2023-08-11T21:03:30.958Z,24.28
2023-08-11T21:05:57.960Z,24.20
2023-08-11T21:08:24.883Z,24.24
2023-08-11T21:10:51.810Z,24.15
2023-08-11T21:13:18.702Z,24.23
2023-08-11T21:15:45.548Z,24.28
2023-08-11T21:18:12.785Z,24.23
2023-08-11T21:20:40.076Z,24.17
2023-08-11T21:23:07.754Z,24.14
2023-08-11T21:25:35.442Z,23.84
2023-08-11T21:28:02.305Z,24.06
2023-08-11T21:30:29.252Z,24.04
2023-08-11T21:32:56.270Z,24.04
2023-08-11T21:35:23.231Z,24.02
2023-08-11T21:37:50.375Z,23.98
2023-08-11T21:40:17.465Z,23.81
2023-08-11T21:42:44.947Z,23.84
2023-08-11T21:45:12.116Z,23.76
2023-08-11T21:47:39.256Z,23.87
2023-08-11T21:50:07.344Z,23.88
2023-08-11T21:52:34.711Z,23.85
2023-08-11T21:55:01.665Z,23.81
2023-08-11T21:57:28.649Z,23.78
2023-08-11T21:59:55.558Z,23.86
2023-08-11T22:02:22.576Z,23.75
2023-08-11T22:04:49.558Z,23.81
2023-08-11T22:07:16.700Z,23.71
2023-08-11T22:09:44.358Z,23.79
2023-08-11T22:12:14.127Z,23.79
2023-08-11T22:14:41.349Z,23.72
2023-08-11T22:17:08.489Z,23.63
2023-08-11T22:19:36.600Z,23.59
2023-08-11T22:22:06.753Z,23.30
2023-08-11T22:24:41.133Z,23.16
2023-08-11T22:27:12.486Z,23.32
2023-08-11T22:29:39.852Z,23.39
2023-08-11T22:32:07.045Z,23.40
2023-08-11T22:34:33.909Z,23.00
2023-08-11T22:37:00.854Z,23.08
2023-08-11T22:39:27.772Z,23.17
2023-08-11T22:41:54.777Z,23.30
2023-08-11T22:44:21.655Z,23.35
2023-08-11T22:46:48.541Z,23.17
2023-08-11T22:49:15.382Z,23.04
2023-08-11T22:51:42.486Z,23.07
2023-08-11T22:54:09.403Z,23.12
2023-08-11T22:56:36.334Z,23.19
2023-08-11T22:59:03.393Z,23.18
2023-08-11T23:01:30.308Z,23.18
2023-08-11T23:03:57.300Z,23.10
2023-08-11T23:06:24.275Z,23.10
2023-08-11T23:08:51.139Z,22.85
2023-08-11T23:11:18.090Z,22.89
2023-08-11T23:13:45.115Z,22.88
2023-08-11T23:16:12.179Z,23.00
2023-08-11T23:18:39.112Z,23.02
2023-08-11T23:21:06.032Z,22.87
2023-08-11T23:23:33.027Z,22.79
2023-08-11T23:25:59.868Z,22.73
2023-08-11T23:28:28.053Z,22.92
2023-08-11T23:30:56.312Z,22.74
2023-08-11T23:33:23.426Z,22.86
2023-08-11T23:35:50.337Z,22.90
2023-08-11T23:38:17.230Z,22.89
2023-08-11T23:40:44.129Z,22.83
2023-08-11T23:43:10.945Z,22.54
2023-08-11T23:45:37.970Z,22.85
2023-08-11T23:48:06.812Z,22.87
2023-08-11T23:50:34.769Z,22.63
2023-08-11T23:53:02.048Z,22.70
2023-08-11T23:55:28.943Z,22.63
2023-08-11T23:57:56.331Z,22.70
